createdAt,value
2023-09-10T00:00:06.820Z,998.22
2023-09-10T00:00:16.819Z,998.22
2023-09-10T00:00:37.503Z,998.21
2023-09-10T00:00:54.780Z,998.22
2023-09-10T00:01:00.768Z,998.21
2023-09-10T00:01:08.435Z,998.21
2023-09-10T00:01:18.844Z,998.21
2023-09-10T00:01:29.852Z,998.21
2023-09-10T00:01:46.278Z,998.21
2023-09-10T00:02:00.201Z,998.21
2023-09-10T00:02:10.537Z,998.20
2023-09-10T00:02:20.886Z,998.20
2023-09-10T00:02:31.734Z,998.20
2023-09-10T00:02:41.619Z,998.20
2023-09-10T00:02:51.917Z,998.20
2023-09-10T00:03:04.784Z,998.19
2023-09-10T00:03:12.476Z,998.19
2023-09-10T00:03:22.865Z,998.19
2023-09-10T00:03:33.144Z,998.19
2023-09-10T00:03:43.463Z,998.18
2023-09-10T00:03:54.250Z,998.18
2023-09-10T00:04:14.523Z,998.18
2023-09-10T00:04:24.779Z,998.18
2023-09-10T00:04:41.783Z,998.18
2023-09-10T00:04:46.287Z,998.18
2023-09-10T00:04:55.673Z,998.17
2023-09-10T00:05:06.018Z,998.17
2023-09-10T00:05:17.234Z,998.17
2023-09-10T00:05:26.612Z,998.17
2023-09-10T00:05:50.254Z,998.16
2023-09-10T00:05:57.661Z,998.16
2023-09-10T00:06:08.739Z,998.16
2023-09-10T00:06:18.277Z,998.16
2023-09-10T00:06:29.245Z,998.16
2023-09-10T00:06:38.789Z,998.16
2023-09-10T00:06:59.453Z,998.16
2023-09-10T00:07:09.695Z,998.16
2023-09-10T00:07:22.744Z,998.16
2023-09-10T00:07:37.308Z,998.16
2023-09-10T00:07:40.740Z,998.16
2023-09-10T00:07:51.006Z,998.16
2023-09-10T00:08:01.256Z,998.16
2023-09-10T00:08:14.250Z,998.16
2023-09-10T00:08:32.222Z,998.17
2023-09-10T00:08:42.471Z,998.17
2023-09-10T00:08:52.719Z,998.17
2023-09-10T00:09:02.984Z,998.17
2023-09-10T00:09:19.766Z,998.17
2023-09-10T00:09:23.622Z,998.17
2023-09-10T00:09:34.765Z,998.17
2023-09-10T00:09:44.295Z,998.17
2023-09-10T00:09:54.551Z,998.17
2023-09-10T00:10:05.746Z,998.17
2023-09-10T00:10:26.239Z,998.17
2023-09-10T00:10:36.309Z,998.17
2023-09-10T00:10:46.783Z,998.17
2023-09-10T00:10:56.585Z,998.17
2023-09-10T00:11:06.943Z,998.17
2023-09-10T00:11:17.077Z,998.17
2023-09-10T00:11:27.319Z,998.17
2023-09-10T00:11:37.645Z,998.18
2023-09-10T00:11:48.740Z,998.18
2023-09-10T00:11:59.240Z,998.18
2023-09-10T00:12:08.549Z,998.18
2023-09-10T00:12:18.790Z,998.18
2023-09-10T00:12:35.756Z,998.18
2023-09-10T00:12:39.388Z,998.18
2023-09-10T00:12:49.631Z,998.18
2023-09-10T00:12:59.891Z,998.18
2023-09-10T00:13:10.123Z,998.18
2023-09-10T00:13:20.368Z,998.18
2023-09-10T00:13:41.108Z,998.18
2023-09-10T00:13:51.387Z,998.18
2023-09-10T00:14:01.684Z,998.18
2023-09-10T00:14:11.981Z,998.18
2023-09-10T00:14:22.738Z,998.18
2023-09-10T00:14:32.517Z,998.18
2023-09-10T00:14:42.764Z,998.18
2023-09-10T00:14:53.043Z,998.19
2023-09-10T00:15:03.276Z,998.19
2023-09-10T00:15:16.242Z,998.19
2023-09-10T00:15:26.739Z,998.19
2023-09-10T00:15:36.790Z,998.19
2023-09-10T00:15:44.476Z,998.19
2023-09-10T00:15:54.820Z,998.19
2023-09-10T00:16:05.097Z,998.19
2023-09-10T00:16:16.341Z,998.19
2023-09-10T00:16:36.216Z,998.19
2023-09-10T00:16:53.274Z,998.19
2023-09-10T00:16:56.921Z,998.19
2023-09-10T00:17:07.755Z,998.19
2023-09-10T00:17:17.566Z,998.19
2023-09-10T00:17:27.860Z,998.19
2023-09-10T00:17:38.114Z,998.19
2023-09-10T00:17:58.758Z,998.19
2023-09-10T00:18:09.083Z,998.19
2023-09-10T00:18:19.390Z,998.19
2023-09-10T00:18:29.765Z,998.19
2023-09-10T00:18:40.314Z,998.19
2023-09-10T00:18:50.507Z,998.19
2023-09-10T00:19:00.710Z,998.19
2023-09-10T00:19:10.962Z,998.19
2023-09-10T00:19:21.217Z,998.19
2023-09-10T00:19:32.250Z,998.19
2023-09-10T00:19:41.820Z,998.19
2023-09-10T00:19:52.251Z,998.19
2023-09-10T00:20:02.374Z,998.19
2023-09-10T00:20:12.654Z,998.19
2023-09-10T00:20:22.893Z,998.19
2023-09-10T00:20:33.144Z,998.19
2023-09-10T00:20:43.387Z,998.19
2023-09-10T00:20:53.631Z,998.19
2023-09-10T00:21:03.911Z,998.19
2023-09-10T00:21:14.191Z,998.19
2023-09-10T00:21:24.438Z,998.19
2023-09-10T00:21:35.254Z,998.19
2023-09-10T00:21:45.028Z,998.19
2023-09-10T00:21:55.294Z,998.19
2023-09-10T00:22:05.532Z,998.19
2023-09-10T00:22:15.788Z,998.19
2023-09-10T00:22:26.034Z,998.19
2023-09-10T00:22:36.315Z,998.18
2023-09-10T00:22:46.588Z,998.18
2023-09-10T00:22:56.862Z,998.19
2023-09-10T00:23:07.133Z,998.19
2023-09-10T00:23:17.382Z,998.18
2023-09-10T00:23:27.663Z,998.19
2023-09-10T00:23:38.259Z,998.19
2023-09-10T00:23:48.274Z,998.19
2023-09-10T00:23:59.251Z,998.18
2023-09-10T00:24:08.788Z,998.19
2023-09-10T00:24:21.748Z,998.19
2023-09-10T00:24:29.413Z,998.19
2023-09-10T00:24:39.663Z,998.19
2023-09-10T00:24:49.968Z,998.19
2023-09-10T00:25:02.764Z,998.19
2023-09-10T00:25:10.634Z,998.19
2023-09-10T00:25:31.350Z,998.19
2023-09-10T00:25:41.643Z,998.19
2023-09-10T00:25:52.768Z,998.19
2023-09-10T00:26:02.322Z,998.19
2023-09-10T00:26:12.576Z,998.19
2023-09-10T00:26:22.822Z,998.18
2023-09-10T00:26:33.749Z,998.19
2023-09-10T00:26:43.525Z,998.19
2023-09-10T00:26:53.766Z,998.18
2023-09-10T00:27:04.066Z,998.18
2023-09-10T00:27:15.254Z,998.18
2023-09-10T00:27:24.556Z,998.18
2023-09-10T00:27:34.817Z,998.18
2023-09-10T00:27:45.751Z,998.18
2023-09-10T00:27:55.295Z,998.17
2023-09-10T00:28:05.568Z,998.17
2023-09-10T00:28:15.807Z,998.17
2023-09-10T00:28:26.050Z,998.17
2023-09-10T00:28:36.370Z,998.17
2023-09-10T00:28:46.712Z,998.16
2023-09-10T00:28:57.006Z,998.17
2023-09-10T00:29:07.265Z,998.17
2023-09-10T00:29:17.587Z,998.16
2023-09-10T00:29:27.818Z,998.16
2023-09-10T00:29:38.065Z,998.16
2023-09-10T00:29:48.320Z,998.16
2023-09-10T00:29:58.557Z,998.16
2023-09-10T00:30:09.750Z,998.16
2023-09-10T00:30:19.765Z,998.15
2023-09-10T00:30:29.307Z,998.16
2023-09-10T00:31:22.895Z,998.17
2023-09-10T00:31:33.215Z,998.15
2023-09-10T00:31:43.576Z,998.15
2023-09-10T00:31:53.879Z,998.15
2023-09-10T00:32:04.221Z,998.15
2023-09-10T00:32:14.544Z,998.15
2023-09-10T00:32:24.867Z,998.15
2023-09-10T00:32:35.186Z,998.15
2023-09-10T00:32:45.480Z,998.15
2023-09-10T00:32:55.775Z,998.15
2023-09-10T00:33:06.177Z,998.15
2023-09-10T00:33:16.313Z,998.15
2023-09-10T00:33:26.556Z,998.15
2023-09-10T00:33:36.807Z,998.15
2023-09-10T00:33:47.047Z,998.15
2023-09-10T00:33:57.296Z,998.15
2023-09-10T00:34:07.543Z,998.15
2023-09-10T00:34:17.792Z,998.15
2023-09-10T00:34:28.036Z,998.15
2023-09-10T00:34:41.183Z,998.15
2023-09-10T00:34:48.813Z,998.15
2023-09-10T00:34:59.113Z,998.15
2023-09-10T00:35:09.458Z,998.14
2023-09-10T00:35:19.819Z,998.14
2023-09-10T00:35:30.060Z,998.14
2023-09-10T00:35:40.309Z,998.14
2023-09-10T00:35:50.555Z,998.14
2023-09-10T00:36:00.803Z,998.14
2023-09-10T00:36:11.076Z,998.14
2023-09-10T00:36:21.299Z,998.14
2023-09-10T00:36:31.541Z,998.14
2023-09-10T00:36:41.790Z,998.14
2023-09-10T00:36:52.034Z,998.14
2023-09-10T00:37:02.285Z,998.14
2023-09-10T00:37:12.544Z,998.14
2023-09-10T00:37:22.786Z,998.14
2023-09-10T00:37:33.062Z,998.14
2023-09-10T00:37:43.326Z,998.14
2023-09-10T00:37:53.594Z,998.14
2023-09-10T00:38:03.826Z,998.14
2023-09-10T00:38:14.119Z,998.13
2023-09-10T00:38:24.337Z,998.14
2023-09-10T00:38:34.590Z,998.14
2023-09-10T00:38:44.837Z,998.14
2023-09-10T00:38:55.088Z,998.13
2023-09-10T00:39:05.336Z,998.13
2023-09-10T00:39:15.581Z,998.13
2023-09-10T00:39:25.826Z,998.13
2023-09-10T00:39:36.072Z,998.13
2023-09-10T00:39:46.323Z,998.13
2023-09-10T00:39:56.584Z,998.13
2023-09-10T00:40:06.839Z,998.13
2023-09-10T00:40:17.162Z,998.13
2023-09-10T00:40:27.372Z,998.13
2023-09-10T00:40:37.661Z,998.13
2023-09-10T00:40:47.911Z,998.13
2023-09-10T00:40:58.185Z,998.12
2023-09-10T00:41:08.434Z,998.12
2023-09-10T00:41:18.659Z,998.12
2023-09-10T00:41:28.901Z,998.11
2023-09-10T00:41:39.156Z,998.12
2023-09-10T00:41:49.426Z,998.12
2023-09-10T00:41:59.665Z,998.12
2023-09-10T00:42:09.927Z,998.11
2023-09-10T00:42:20.205Z,998.11
2023-09-10T00:42:30.462Z,998.11
2023-09-10T00:42:40.704Z,998.11
2023-09-10T00:42:50.947Z,998.11
2023-09-10T00:43:01.202Z,998.11
2023-09-10T00:43:11.585Z,998.11
2023-09-10T00:43:21.822Z,998.11
2023-09-10T00:43:32.052Z,998.10
2023-09-10T00:43:42.344Z,998.11
2023-09-10T00:43:52.602Z,998.11
2023-09-10T00:44:02.927Z,998.10
2023-09-10T00:44:13.241Z,998.10
2023-09-10T00:44:23.485Z,998.10
2023-09-10T00:44:33.730Z,998.10
2023-09-10T00:44:43.992Z,998.10
2023-09-10T00:44:54.237Z,998.10
2023-09-10T00:45:04.482Z,998.10
2023-09-10T00:45:14.738Z,998.10
2023-09-10T00:45:25.097Z,998.09
2023-09-10T00:45:35.410Z,998.09
2023-09-10T00:45:45.803Z,998.09
2023-09-10T00:45:56.090Z,998.09
2023-09-10T00:46:06.413Z,998.09
2023-09-10T00:46:16.720Z,998.09
2023-09-10T00:46:26.982Z,998.09
2023-09-10T00:46:37.290Z,998.09
2023-09-10T00:46:47.549Z,998.09
2023-09-10T00:46:57.876Z,998.09
2023-09-10T00:47:08.143Z,998.08
2023-09-10T00:47:18.374Z,998.08
2023-09-10T00:47:28.680Z,998.09
2023-09-10T00:47:38.982Z,998.09
2023-09-10T00:47:49.237Z,998.08
2023-09-10T00:47:59.474Z,998.09
2023-09-10T00:48:09.684Z,998.09
2023-09-10T00:48:19.929Z,998.09
2023-09-10T00:48:30.178Z,998.09
2023-09-10T00:48:41.146Z,998.09
2023-09-10T00:48:50.863Z,998.08
2023-09-10T00:49:01.112Z,998.09
2023-09-10T00:49:11.363Z,998.09
2023-09-10T00:49:21.627Z,998.09
2023-09-10T00:49:31.913Z,998.08
2023-09-10T00:49:42.189Z,998.08
2023-09-10T00:49:52.489Z,998.08
2023-09-10T00:50:02.754Z,998.08
2023-09-10T00:50:13.102Z,998.08
2023-09-10T00:50:23.338Z,998.08
2023-09-10T00:50:33.590Z,998.07
2023-09-10T00:50:43.842Z,998.08
2023-09-10T00:50:54.111Z,998.07
2023-09-10T00:51:04.350Z,998.07
2023-09-10T00:51:14.633Z,998.07
2023-09-10T00:51:24.863Z,998.06
2023-09-10T00:51:35.140Z,998.06
2023-09-10T00:51:45.402Z,998.06
2023-09-10T00:51:55.724Z,998.06
2023-09-10T00:52:05.952Z,998.05
2023-09-10T00:52:16.182Z,998.05
2023-09-10T00:52:26.421Z,998.05
2023-09-10T00:52:36.697Z,998.04
2023-09-10T00:52:46.980Z,998.04
2023-09-10T00:52:57.303Z,998.04
2023-09-10T00:53:07.709Z,998.03
2023-09-10T00:53:17.800Z,998.03
2023-09-10T00:53:28.046Z,998.03
2023-09-10T00:53:38.328Z,998.02
2023-09-10T00:53:48.576Z,998.02
2023-09-10T00:53:58.869Z,998.02
2023-09-10T00:54:09.123Z,998.02
2023-09-10T00:54:19.362Z,998.01
2023-09-10T00:54:29.608Z,998.01
2023-09-10T00:54:39.863Z,998.00
2023-09-10T00:54:50.111Z,998.00
2023-09-10T00:55:00.369Z,998.00
2023-09-10T00:55:10.611Z,997.99
2023-09-10T00:55:20.860Z,997.99
2023-09-10T00:55:31.183Z,997.99
2023-09-10T00:55:41.506Z,997.99
2023-09-10T00:55:51.796Z,997.99
2023-09-10T00:56:02.064Z,997.99
2023-09-10T00:56:12.325Z,997.98
2023-09-10T00:56:22.624Z,997.98
2023-09-10T00:56:32.863Z,997.98
2023-09-10T00:56:43.117Z,997.98
2023-09-10T00:56:53.441Z,997.98
2023-09-10T00:57:03.705Z,997.97
2023-09-10T00:57:13.930Z,997.97
2023-09-10T00:57:24.179Z,997.97
2023-09-10T00:57:34.446Z,997.97
2023-09-10T00:57:44.710Z,997.97
2023-09-10T00:57:54.946Z,997.97
2023-09-10T00:58:05.195Z,997.97
2023-09-10T00:58:15.465Z,997.97
2023-09-10T00:58:25.692Z,997.97
2023-09-10T00:58:35.993Z,997.96
2023-09-10T00:58:46.235Z,997.96
2023-09-10T00:58:56.485Z,997.97
2023-09-10T00:59:06.877Z,997.97
2023-09-10T00:59:17.186Z,997.97
2023-09-10T00:59:27.475Z,997.96
2023-09-10T00:59:37.707Z,997.97
2023-09-10T00:59:47.950Z,997.96
2023-09-10T00:59:58.183Z,997.97
2023-09-10T01:00:08.432Z,997.97
2023-09-10T01:00:18.687Z,997.97
2023-09-10T01:00:28.939Z,997.97
2023-09-10T01:00:39.201Z,997.97
2023-09-10T01:00:49.497Z,997.97
2023-09-10T01:00:59.855Z,997.97
2023-09-10T01:01:10.201Z,997.97
2023-09-10T01:01:20.497Z,997.97
2023-09-10T01:01:30.821Z,997.98
2023-09-10T01:01:41.011Z,997.98
2023-09-10T01:01:51.287Z,997.98
2023-09-10T01:02:01.625Z,997.98
2023-09-10T01:02:11.949Z,997.98
2023-09-10T01:02:22.243Z,997.98
2023-09-10T01:02:32.550Z,997.98
2023-09-10T01:02:42.809Z,997.98
2023-09-10T01:02:53.146Z,997.98
2023-09-10T01:03:03.497Z,997.98
2023-09-10T01:03:13.828Z,997.98
2023-09-10T01:03:24.180Z,997.98
2023-09-10T01:03:34.523Z,997.98
2023-09-10T01:03:44.790Z,997.98
2023-09-10T01:03:55.048Z,997.99
2023-09-10T01:04:05.293Z,997.98
2023-09-10T01:04:15.543Z,997.98
2023-09-10T01:04:25.794Z,997.98
2023-09-10T01:04:36.091Z,997.98
2023-09-10T01:04:46.319Z,997.98
2023-09-10T01:04:56.592Z,997.98
2023-09-10T01:05:06.893Z,997.99
2023-09-10T01:05:17.127Z,997.98
2023-09-10T01:05:27.391Z,997.98
2023-09-10T01:05:37.659Z,997.98
2023-09-10T01:05:47.904Z,997.98
2023-09-10T01:05:58.152Z,997.98
2023-09-10T01:06:08.421Z,997.98
2023-09-10T01:06:18.669Z,997.98
2023-09-10T01:06:28.934Z,997.97
2023-09-10T01:06:39.154Z,997.97
2023-09-10T01:06:49.559Z,997.97
2023-09-10T01:06:59.805Z,997.97
2023-09-10T01:07:10.038Z,997.97
2023-09-10T01:07:20.283Z,997.97
2023-09-10T01:07:30.539Z,997.97
2023-09-10T01:07:40.886Z,997.97
2023-09-10T01:07:51.221Z,997.97
2023-09-10T01:08:01.478Z,997.97
2023-09-10T01:08:11.785Z,997.97
2023-09-10T01:08:22.029Z,997.96
2023-09-10T01:08:32.277Z,997.96
2023-09-10T01:08:42.525Z,997.96
2023-09-10T01:08:52.781Z,997.96
2023-09-10T01:09:03.035Z,997.96
2023-09-10T01:09:13.268Z,997.96
2023-09-10T01:09:29.637Z,997.96
2023-09-10T01:09:34.964Z,997.95
2023-09-10T01:09:44.266Z,997.96
2023-09-10T01:09:54.561Z,997.96
2023-09-10T01:10:04.795Z,997.96
2023-09-10T01:10:15.076Z,997.96
2023-09-10T01:10:25.307Z,997.95
2023-09-10T01:10:35.594Z,997.95
2023-09-10T01:10:45.863Z,997.95
2023-09-10T01:10:56.092Z,997.95
2023-09-10T01:11:06.347Z,997.95
2023-09-10T01:11:16.617Z,997.95
2023-09-10T01:11:26.881Z,997.95
2023-09-10T01:11:37.115Z,997.95
2023-09-10T01:11:47.432Z,997.95
2023-09-10T01:11:57.674Z,997.95
2023-09-10T01:12:07.921Z,997.95
2023-09-10T01:12:18.171Z,997.95
2023-09-10T01:12:28.419Z,997.95
2023-09-10T01:12:38.662Z,997.94
2023-09-10T01:12:48.922Z,997.95
2023-09-10T01:12:59.165Z,997.95
2023-09-10T01:13:09.411Z,997.95
2023-09-10T01:13:19.679Z,997.94
2023-09-10T01:13:29.908Z,997.94
2023-09-10T01:13:40.191Z,997.95
2023-09-10T01:13:50.473Z,997.94
2023-09-10T01:14:00.756Z,997.94
2023-09-10T01:14:11.000Z,997.95
2023-09-10T01:14:21.239Z,997.94
2023-09-10T01:14:31.503Z,997.94
2023-09-10T01:14:41.772Z,997.94
2023-09-10T01:14:52.027Z,997.94
2023-09-10T01:15:02.281Z,997.94
2023-09-10T01:15:12.527Z,997.94
2023-09-10T01:15:22.774Z,997.94
2023-09-10T01:15:33.037Z,997.94
2023-09-10T01:15:43.268Z,997.94
2023-09-10T01:15:53.518Z,997.94
2023-09-10T01:16:03.773Z,997.94
2023-09-10T01:16:14.056Z,997.93
2023-09-10T01:16:24.359Z,997.94
2023-09-10T01:16:34.740Z,997.94
2023-09-10T01:16:45.068Z,997.94
2023-09-10T01:16:55.424Z,997.93
2023-09-10T01:17:05.744Z,997.93
2023-09-10T01:17:16.072Z,997.93
2023-09-10T01:17:26.436Z,997.94
2023-09-10T01:17:36.859Z,997.94
2023-09-10T01:17:47.043Z,997.94
2023-09-10T01:17:57.431Z,997.94
2023-09-10T01:18:07.721Z,997.94
2023-09-10T01:18:18.043Z,997.93
2023-09-10T01:18:28.375Z,997.94
2023-09-10T01:18:38.918Z,997.94
2023-09-10T01:18:48.903Z,997.93
2023-09-10T01:18:59.150Z,997.93
2023-09-10T01:19:09.416Z,997.93
2023-09-10T01:19:19.669Z,997.93
2023-09-10T01:19:29.940Z,997.93
2023-09-10T01:19:40.205Z,997.93
2023-09-10T01:19:50.463Z,997.93
2023-09-10T01:20:00.842Z,997.93
2023-09-10T01:20:11.012Z,997.93
2023-09-10T01:20:21.323Z,997.93
2023-09-10T01:20:31.585Z,997.93
2023-09-10T01:20:41.851Z,997.93
2023-09-10T01:20:52.133Z,997.93
2023-09-10T01:21:02.376Z,997.93
2023-09-10T01:21:12.603Z,997.93
2023-09-10T01:21:22.849Z,997.93
2023-09-10T01:21:33.118Z,997.93
2023-09-10T01:21:43.392Z,997.93
2023-09-10T01:21:53.678Z,997.93
2023-09-10T01:22:03.884Z,997.93
2023-09-10T01:22:14.136Z,997.93
2023-09-10T01:22:24.380Z,997.93
2023-09-10T01:22:34.731Z,997.93
2023-09-10T01:22:45.042Z,997.93
2023-09-10T01:22:55.299Z,997.93
2023-09-10T01:23:05.618Z,997.92
2023-09-10T01:23:15.912Z,997.92
2023-09-10T01:23:26.158Z,997.93
2023-09-10T01:23:36.408Z,997.93
2023-09-10T01:23:46.681Z,997.93
2023-09-10T01:23:56.933Z,997.92
2023-09-10T01:24:07.190Z,997.92
2023-09-10T01:24:17.446Z,997.93
2023-09-10T01:24:27.745Z,997.92
2023-09-10T01:24:37.996Z,997.92
2023-09-10T01:24:48.243Z,997.93
2023-09-10T01:24:58.488Z,997.93
2023-09-10T01:25:08.760Z,997.93
2023-09-10T01:25:19.009Z,997.92
2023-09-10T01:25:29.240Z,997.92
2023-09-10T01:25:39.579Z,997.92
2023-09-10T01:25:49.861Z,997.93
2023-09-10T01:26:00.106Z,997.93
2023-09-10T01:26:10.415Z,997.92
2023-09-10T01:26:20.629Z,997.93
2023-09-10T01:26:30.874Z,997.93
2023-09-10T01:26:41.123Z,997.93
2023-09-10T01:26:51.370Z,997.93
2023-09-10T01:27:01.634Z,997.93
2023-09-10T01:27:11.900Z,997.93
2023-09-10T01:28:03.117Z,997.94
2023-09-10T01:28:13.125Z,997.93
2023-09-10T01:28:23.396Z,997.93
2023-09-10T01:28:34.671Z,997.93
2023-09-10T01:28:44.012Z,997.93
2023-09-10T01:28:54.276Z,997.92
2023-09-10T01:29:04.566Z,997.93
2023-09-10T01:29:14.891Z,997.92
2023-09-10T01:29:25.117Z,997.92
2023-09-10T01:29:36.114Z,997.92
2023-09-10T01:29:45.665Z,997.92
2023-09-10T01:29:55.923Z,997.92
2023-09-10T01:30:06.175Z,997.92
2023-09-10T01:30:16.469Z,997.92
2023-09-10T01:30:33.633Z,997.92
2023-09-10T01:30:37.015Z,997.92
2023-09-10T01:30:47.296Z,997.92
2023-09-10T01:30:57.550Z,997.92
2023-09-10T01:31:07.837Z,997.91
2023-09-10T01:31:18.160Z,997.91
2023-09-10T01:31:41.695Z,997.91
2023-09-10T01:32:12.710Z,997.91
2023-09-10T01:32:13.303Z,997.91
2023-09-10T01:32:23.519Z,997.91
2023-09-10T01:32:36.666Z,997.91
2023-09-10T01:32:44.079Z,997.91
2023-09-10T01:32:54.350Z,997.91
2023-09-10T01:33:15.038Z,997.91
2023-09-10T01:33:25.303Z,997.91
2023-09-10T01:33:36.120Z,997.91
2023-09-10T01:33:45.999Z,997.91
2023-09-10T01:33:56.204Z,997.91
2023-09-10T01:34:06.458Z,997.90
2023-09-10T01:34:16.694Z,997.90
2023-09-10T01:34:26.945Z,997.90
2023-09-10T01:34:37.197Z,997.91
2023-09-10T01:34:47.449Z,997.91
2023-09-10T01:34:58.642Z,997.91
2023-09-10T01:35:10.633Z,997.91
2023-09-10T01:35:19.118Z,997.90
2023-09-10T01:35:29.616Z,997.91
2023-09-10T01:35:39.614Z,997.91
2023-09-10T01:35:50.130Z,997.91
2023-09-10T01:35:59.446Z,997.91
2023-09-10T01:36:20.113Z,997.91
2023-09-10T01:36:33.128Z,997.91
2023-09-10T01:36:43.618Z,997.91
2023-09-10T01:36:51.057Z,997.91
2023-09-10T01:37:01.315Z,997.91
2023-09-10T01:37:11.542Z,997.91
2023-09-10T01:37:21.802Z,997.91
2023-09-10T01:37:42.512Z,997.91
2023-09-10T01:37:52.764Z,997.91
2023-09-10T01:38:03.086Z,997.91
2023-09-10T01:38:13.402Z,997.91
2023-09-10T01:38:24.147Z,997.91
2023-09-10T01:38:33.935Z,997.91
2023-09-10T01:38:44.180Z,997.92
2023-09-10T01:38:54.430Z,997.91
2023-09-10T01:39:04.688Z,997.91
2023-09-10T01:39:14.927Z,997.91
2023-09-10T01:39:25.183Z,997.91
2023-09-10T01:39:35.440Z,997.91
2023-09-10T01:39:45.687Z,997.91
2023-09-10T01:39:55.934Z,997.91
2023-09-10T01:40:06.187Z,997.91
2023-09-10T01:40:16.431Z,997.91
2023-09-10T01:40:26.679Z,997.91
2023-09-10T01:40:39.658Z,997.91
2023-09-10T01:40:48.147Z,997.90
2023-09-10T01:40:57.703Z,997.91
2023-09-10T01:41:08.006Z,997.91
2023-09-10T01:41:18.242Z,997.90
2023-09-10T01:41:29.123Z,997.90
2023-09-10T01:41:49.323Z,997.91
2023-09-10T01:41:59.567Z,997.90
2023-09-10T01:42:09.843Z,997.91
2023-09-10T01:42:22.622Z,997.90
2023-09-10T01:42:30.518Z,997.91
2023-09-10T01:42:40.760Z,997.90
2023-09-10T01:42:51.067Z,997.90
2023-09-10T01:43:01.283Z,997.90
2023-09-10T01:43:11.561Z,997.90
2023-09-10T01:43:32.498Z,997.90
2023-09-10T01:43:43.154Z,997.90
2023-09-10T01:43:52.965Z,997.90
2023-09-10T01:44:03.233Z,997.90
2023-09-10T01:44:13.502Z,997.90
2023-09-10T01:44:23.726Z,997.89
2023-09-10T01:44:33.970Z,997.89
2023-09-10T01:44:44.265Z,997.89
2023-09-10T01:44:54.519Z,997.89
2023-09-10T01:45:05.623Z,997.90
2023-09-10T01:45:16.126Z,997.90
2023-09-10T01:45:46.428Z,997.90
2023-09-10T01:45:47.015Z,997.89
2023-09-10T01:45:58.138Z,997.89
2023-09-10T01:46:08.669Z,997.89
2023-09-10T01:46:17.997Z,997.90
2023-09-10T01:46:28.298Z,997.90
2023-09-10T01:46:49.058Z,997.90
2023-09-10T01:47:00.155Z,997.90
2023-09-10T01:47:09.771Z,997.90
2023-09-10T01:47:20.088Z,997.91
2023-09-10T01:47:30.479Z,997.91
2023-09-10T01:47:40.595Z,997.91
2023-09-10T01:47:50.878Z,997.91
2023-09-10T01:48:01.213Z,997.91
2023-09-10T01:48:11.494Z,997.91
2023-09-10T01:48:21.731Z,997.91
2023-09-10T01:48:34.649Z,997.92
2023-09-10T01:48:45.135Z,997.92
2023-09-10T01:48:52.570Z,997.92
2023-09-10T01:49:02.807Z,997.92
2023-09-10T01:49:13.052Z,997.92
2023-09-10T01:49:23.288Z,997.93
2023-09-10T01:49:44.059Z,997.93
2023-09-10T01:49:54.317Z,997.93
2023-09-10T01:50:19.132Z,997.93
2023-09-10T01:50:19.693Z,997.94
2023-09-10T01:50:29.959Z,997.94
2023-09-10T01:50:40.182Z,997.94
2023-09-10T01:50:50.443Z,997.94
2023-09-10T01:51:00.706Z,997.94
2023-09-10T01:51:21.387Z,997.94
2023-09-10T01:51:31.604Z,997.94
2023-09-10T01:51:42.653Z,997.95
2023-09-10T01:51:52.167Z,997.95
2023-09-10T01:52:02.437Z,997.95
2023-09-10T01:52:12.721Z,997.95
2023-09-10T01:52:22.976Z,997.95
2023-09-10T01:52:33.665Z,997.95
2023-09-10T01:52:44.644Z,997.95
2023-09-10T01:52:53.948Z,997.95
2023-09-10T01:53:04.238Z,997.95
2023-09-10T01:53:15.157Z,997.95
2023-09-10T01:53:24.723Z,997.95
2023-09-10T01:53:34.997Z,997.95
2023-09-10T01:53:45.222Z,997.96
2023-09-10T01:53:55.476Z,997.95
2023-09-10T01:54:06.644Z,997.95
2023-09-10T01:54:16.187Z,997.95
2023-09-10T01:54:26.415Z,997.95
2023-09-10T01:54:36.668Z,997.95
2023-09-10T01:54:46.922Z,997.96
2023-09-10T01:54:57.164Z,997.96
2023-09-10T01:55:07.453Z,997.96
2023-09-10T01:55:20.636Z,997.96
2023-09-10T01:55:28.061Z,997.96
2023-09-10T01:55:39.177Z,997.96
2023-09-10T01:55:48.751Z,997.96
2023-09-10T01:55:59.057Z,997.96
2023-09-10T01:56:09.332Z,997.96
2023-09-10T01:56:30.009Z,997.96
2023-09-10T01:56:40.277Z,997.97
2023-09-10T01:56:50.556Z,997.97
2023-09-10T01:57:03.643Z,997.97
2023-09-10T01:57:11.064Z,997.97
2023-09-10T01:57:21.319Z,997.97
2023-09-10T01:57:34.146Z,997.98
2023-09-10T01:57:42.048Z,997.98
2023-09-10T01:57:52.281Z,997.98
2023-09-10T01:58:12.954Z,997.98
2023-09-10T01:58:23.195Z,997.98
2023-09-10T01:58:33.451Z,997.98
2023-09-10T01:58:44.708Z,997.99
2023-09-10T01:58:54.023Z,997.99
2023-09-10T01:59:04.271Z,998.00
2023-09-10T01:59:14.584Z,998.00
2023-09-10T01:59:24.827Z,998.00
2023-09-10T01:59:35.058Z,998.00
2023-09-10T01:59:45.316Z,998.01
2023-09-10T01:59:55.560Z,998.01
2023-09-10T02:00:05.801Z,998.01
2023-09-10T02:00:16.053Z,998.01
2023-09-10T02:00:26.325Z,998.01
2023-09-10T02:00:36.578Z,998.01
2023-09-10T02:00:46.845Z,998.01
2023-09-10T02:00:57.071Z,998.02
2023-09-10T02:01:10.147Z,998.02
2023-09-10T02:01:17.781Z,998.02
2023-09-10T02:01:28.152Z,998.02
2023-09-10T02:01:38.501Z,998.03
2023-09-10T02:01:48.803Z,998.03
2023-09-10T02:01:59.183Z,998.03
2023-09-10T02:02:19.912Z,998.03
2023-09-10T02:02:33.225Z,998.04
2023-09-10T02:02:40.772Z,998.04
2023-09-10T02:02:50.926Z,998.04
2023-09-10T02:03:01.253Z,998.04
2023-09-10T02:03:11.509Z,998.05
2023-09-10T02:03:21.738Z,998.04
2023-09-10T02:03:42.563Z,998.05
2023-09-10T02:03:52.774Z,998.05
2023-09-10T02:04:03.099Z,998.04
2023-09-10T02:04:13.492Z,998.05
2023-09-10T02:04:23.950Z,998.05
2023-09-10T02:04:35.225Z,998.05
2023-09-10T02:04:44.640Z,998.05
2023-09-10T02:04:54.998Z,998.05
2023-09-10T02:05:05.296Z,998.05
2023-09-10T02:05:16.203Z,998.05
2023-09-10T02:05:25.951Z,998.05
2023-09-10T02:05:37.163Z,998.05
2023-09-10T02:05:46.463Z,998.05
2023-09-10T02:05:56.718Z,998.05
2023-09-10T02:06:06.970Z,998.05
2023-09-10T02:06:17.240Z,998.05
2023-09-10T02:06:27.510Z,998.05
2023-09-10T02:06:39.649Z,998.05
2023-09-10T02:06:48.041Z,998.05
2023-09-10T02:06:59.145Z,998.05
2023-09-10T02:07:08.693Z,998.05
2023-09-10T02:07:18.943Z,998.05
2023-09-10T02:07:29.199Z,998.05
2023-09-10T02:07:49.916Z,998.06
2023-09-10T02:08:00.254Z,998.06
2023-09-10T02:08:11.164Z,998.06
2023-09-10T02:08:20.793Z,998.06
2023-09-10T02:08:31.032Z,998.06
2023-09-10T02:08:42.136Z,998.06
2023-09-10T02:08:51.672Z,998.06
2023-09-10T02:09:01.921Z,998.06
2023-09-10T02:09:12.175Z,998.06
2023-09-10T02:09:25.153Z,998.06
2023-09-10T02:09:32.792Z,998.06
2023-09-10T02:09:45.682Z,998.06
2023-09-10T02:09:53.328Z,998.06
2023-09-10T02:10:03.559Z,998.06
2023-09-10T02:10:13.806Z,998.06
2023-09-10T02:10:35.152Z,998.07
2023-09-10T02:10:44.955Z,998.07
2023-09-10T02:10:55.245Z,998.07
2023-09-10T02:11:05.484Z,998.08
2023-09-10T02:11:17.732Z,998.08
2023-09-10T02:11:26.095Z,998.08
2023-09-10T02:11:36.333Z,998.07
2023-09-10T02:11:46.576Z,998.08
2023-09-10T02:11:56.830Z,998.08
2023-09-10T02:12:07.074Z,998.07
2023-09-10T02:12:27.758Z,998.08
2023-09-10T02:12:44.648Z,998.08
2023-09-10T02:12:48.275Z,998.08
2023-09-10T02:12:58.543Z,998.07
2023-09-10T02:13:08.794Z,998.07
2023-09-10T02:13:19.023Z,998.07
2023-09-10T02:13:32.182Z,998.07
2023-09-10T02:13:50.090Z,998.07
2023-09-10T02:14:00.417Z,998.07
2023-09-10T02:14:10.695Z,998.07
2023-09-10T02:14:20.952Z,998.07
2023-09-10T02:14:31.203Z,998.07
2023-09-10T02:14:41.471Z,998.07
2023-09-10T02:14:51.700Z,998.07
2023-09-10T02:15:01.944Z,998.07